Aérodrome :
LOGIN :

S'inscrire | Disclaimer

   EN    FR    IT 

 










Légende :    VFR   VFR Marginal   IFR   IFR Intensif   IFR Très Intensif
Visi : 
Plafond : 
>= 8 km
>= 3000ft
5 à 8 km
1000 à 3000 ft
1500m à 5 km
500 à 1000 ft
800 à 1500m
200 à 500 ft
< 800m
< 200 ft
Symboles :   Orages  Brouillard  Fortes neiges  Fortes précipitations  Vent > 20 kt
SIGMETs :   Divers  Orages  Givrage  Turbulence  Onde Orograph.  Cendres Volcan.







- Altitude de l'aérodrome : 433 ft
- Voir les cartes d'approche


LFOC - Chateaudun

DERNIER METAR :
  • 220930Z AUTO 19007KT 1100 1000 R28/1400D SN BR OVC005 00/00 Q1007 NOSIG

METARs EXPIRÉS :
  • 220900Z AUTO 19008KT 2400 PL BR OVC006 00/00 Q1007 TEMPO 1200 SN
  • 220830Z AUTO 19009KT 2500 PL BR OVC005 00/M00 Q1008 TEMPO 1200 SN
  • 220800Z AUTO 19009KT 2800 PL BR BKN006 OVC037 M00/M01 Q1008 TEMPO 1200 SN OVC003
  • 220730Z AUTO 19010KT 3500 -SN BR FEW005 SCT029 OVC040 M00/M01 Q1009 TEMPO 1200 SN OVC003
  • 220700Z AUTO 18010KT 3600 -SN BR FEW019 BKN027 BKN032 M01/M01 Q1009 BECMG 7000 NSW BKN010

TAF TAF LFOC
Valide du 22 à 09h jusqu'au 23 à 09h UTC


220800Z 2209/2309 19010KT 3500 BR BKN007 BKN012
TEMPO 2209/2212 1200 SN OVC005
PROB40
TEMPO 2212/2217 8000 NSW BKN015
TEMPO 2221/2307 1500 SHRASN BKN008 SCT020CB
Pas de NOTAMs connus pour ce terrain.



MET'MAP, la Météo Aéronautique d'un coup d'oeil ! - Copyright ORBIFLY Décembre 2007 - Disclaimer

ORBIFLY MET'MAP TEAM :

Programmation & Développement : Alexandra Zaïnal
Conception & Développement : Baudouin d'Aumeries
Co-Programmation & Développement : Marc-Olivier Méhu
Soutien technique & logistique : Manuel Goepfert

Contact : metmap@orbifly.com




SOURCES & CREDITS :

   NOAA